createdAt,value
2018-09-05T00:01:23.097Z,7.87
2018-09-05T00:03:54.826Z,7.97
2018-09-05T00:06:27.342Z,7.30
2018-09-05T00:08:59.075Z,7.43
2018-09-05T00:11:30.764Z,7.70
2018-09-05T00:14:02.577Z,7.67
2018-09-05T00:16:33.827Z,8.03
2018-09-05T00:19:05.657Z,7.50
2018-09-05T00:21:36.990Z,5.93
2018-09-05T00:24:08.707Z,8.00
2018-09-05T00:26:40.290Z,7.23
2018-09-05T00:29:12.415Z,7.70
2018-09-05T00:31:43.652Z,8.80
2018-09-05T00:34:15.221Z,9.07
2018-09-05T00:36:46.793Z,6.87
2018-09-05T00:39:18.496Z,7.27
2018-09-05T00:41:49.885Z,7.47
2018-09-05T00:44:21.723Z,7.53
2018-09-05T00:46:53.051Z,7.73
2018-09-05T00:49:24.653Z,7.33
2018-09-05T00:51:56.139Z,7.40
2018-09-05T00:54:27.818Z,7.63
2018-09-05T00:56:59.255Z,9.63
2018-09-05T00:59:31.010Z,7.57
2018-09-05T01:02:04.510Z,8.50
2018-09-05T01:04:36.342Z,8.77
2018-09-05T01:07:18.937Z,8.17
2018-09-05T01:09:50.714Z,8.57
2018-09-05T01:12:23.070Z,8.23
2018-09-05T01:14:55.586Z,9.83
2018-09-05T01:17:30.481Z,10.20
2018-09-05T01:20:07.545Z,9.10
2018-09-05T01:22:42.358Z,9.93
2018-09-05T01:25:18.654Z,9.53
2018-09-05T01:27:52.476Z,9.73
2018-09-05T01:30:29.493Z,8.93
2018-09-05T01:33:07.910Z,12.13
2018-09-05T01:35:42.871Z,8.70
2018-09-05T01:38:20.034Z,9.47
2018-09-05T01:40:54.500Z,11.10
2018-09-05T01:43:29.165Z,10.10
2018-09-05T01:46:05.140Z,10.40
2018-09-05T01:48:39.154Z,10.20
2018-09-05T01:51:13.237Z,10.60
2018-09-05T01:53:47.021Z,10.33
2018-09-05T01:56:19.758Z,9.70
2018-09-05T01:58:55.450Z,8.70
2018-09-05T02:01:30.357Z,10.13
2018-09-05T02:04:03.411Z,10.60
2018-09-05T02:06:39.321Z,8.57
2018-09-05T02:09:15.691Z,11.40
2018-09-05T02:11:53.261Z,10.03
2018-09-05T02:14:26.498Z,10.60
2018-09-05T02:17:02.283Z,11.27
2018-09-05T02:19:38.113Z,11.13
2018-09-05T02:22:11.921Z,10.80
2018-09-05T02:24:46.914Z,11.43
2018-09-05T02:27:23.037Z,11.60
2018-09-05T02:29:58.328Z,10.80
2018-09-05T02:32:32.918Z,10.70
2018-09-05T02:35:09.896Z,10.40
2018-09-05T02:37:44.887Z,11.67
2018-09-05T02:40:17.789Z,10.87
2018-09-05T02:42:51.922Z,11.33
2018-09-05T02:45:26.057Z,10.67
2018-09-05T02:48:00.529Z,10.30
2018-09-05T02:50:35.852Z,10.73
2018-09-05T02:53:10.575Z,11.50
2018-09-05T02:55:48.730Z,10.10
2018-09-05T02:58:23.451Z,10.80
2018-09-05T03:00:58.246Z,10.90
2018-09-05T03:03:32.677Z,10.87
2018-09-05T03:06:07.796Z,11.80
2018-09-05T03:08:42.560Z,12.37
2018-09-05T03:11:19.262Z,11.50
2018-09-05T03:13:53.229Z,11.33
2018-09-05T03:16:27.551Z,11.67
2018-09-05T03:19:04.801Z,10.37
2018-09-05T03:21:37.504Z,10.13
2018-09-05T03:24:13.011Z,10.30
2018-09-05T03:26:47.136Z,11.70
2018-09-05T03:29:21.902Z,12.17
2018-09-05T03:31:55.552Z,10.07
2018-09-05T03:34:30.960Z,10.43
2018-09-05T03:37:05.703Z,9.90
2018-09-05T03:39:41.626Z,9.93
2018-09-05T03:42:15.702Z,11.17
2018-09-05T03:44:50.365Z,10.37
2018-09-05T03:47:24.683Z,9.50
2018-09-05T03:49:59.986Z,10.63
2018-09-05T03:52:34.693Z,10.90
2018-09-05T03:55:10.365Z,10.47
2018-09-05T03:57:45.638Z,9.20
2018-09-05T04:00:22.707Z,9.40
2018-09-05T04:02:56.225Z,11.07
2018-09-05T04:05:32.553Z,10.03
2018-09-05T04:08:06.410Z,12.07
2018-09-05T04:10:41.817Z,9.90
2018-09-05T04:13:17.221Z,11.30
2018-09-05T04:15:52.541Z,11.67
2018-09-05T04:18:25.993Z,11.63
2018-09-05T04:20:59.940Z,10.17
2018-09-05T04:23:40.169Z,11.63
2018-09-05T04:26:16.713Z,12.53
2018-09-05T04:28:51.585Z,12.63
2018-09-05T04:31:25.810Z,12.70
2018-09-05T04:34:00.173Z,11.80
2018-09-05T04:36:34.693Z,11.63
2018-09-05T04:39:10.061Z,11.17
2018-09-05T04:41:45.477Z,12.23
2018-09-05T04:44:20.258Z,11.50
2018-09-05T04:46:54.788Z,12.73
2018-09-05T04:49:28.762Z,12.13
2018-09-05T04:52:02.942Z,12.70
2018-09-05T04:54:34.937Z,14.63
2018-09-05T04:57:10.980Z,12.77
2018-09-05T04:59:46.688Z,13.00
2018-09-05T05:02:21.237Z,12.78
2018-09-05T05:04:54.871Z,12.65
2018-09-05T05:07:30.010Z,12.45
2018-09-05T05:10:05.549Z,12.40
2018-09-05T05:12:41.755Z,13.90
2018-09-05T05:15:17.607Z,13.65
2018-09-05T05:17:55.911Z,12.50
2018-09-05T05:20:30.192Z,13.65
2018-09-05T05:23:05.740Z,14.38
2018-09-05T05:25:37.888Z,13.53
2018-09-05T05:28:13.127Z,15.53
2018-09-05T05:30:49.102Z,16.60
2018-09-05T05:33:22.327Z,15.72
2018-09-05T05:35:56.994Z,14.50
2018-09-05T05:38:32.153Z,17.73
2018-09-05T05:41:05.979Z,16.85
2018-09-05T05:43:40.080Z,16.00
2018-09-05T05:46:13.513Z,16.87
2018-09-05T05:48:46.769Z,20.55
2018-09-05T05:51:26.049Z,21.73
2018-09-05T05:53:59.557Z,18.05
2018-09-05T05:56:33.935Z,18.60
2018-09-05T05:59:09.473Z,19.73
2018-09-05T06:01:45.597Z,21.82
2018-09-05T06:04:20.394Z,17.15
2018-09-05T06:06:53.998Z,19.02
2018-09-05T06:09:32.634Z,16.45
2018-09-05T06:12:08.211Z,15.65
2018-09-05T06:14:40.827Z,16.90
2018-09-05T06:17:15.681Z,17.80
2018-09-05T06:19:49.042Z,18.20
2018-09-05T06:22:23.617Z,20.17
2018-09-05T06:24:58.209Z,16.37
2018-09-05T06:27:31.192Z,16.15
2018-09-05T06:30:07.369Z,17.90
2018-09-05T06:32:45.360Z,17.80
2018-09-05T06:35:18.467Z,17.23
2018-09-05T06:37:51.000Z,16.60
2018-09-05T06:40:24.758Z,13.90
2018-09-05T06:42:59.666Z,15.80
2018-09-05T06:45:35.230Z,16.65
2018-09-05T06:48:13.614Z,16.23
2018-09-05T06:50:47.001Z,16.10
2018-09-05T06:53:20.653Z,16.32
2018-09-05T06:55:54.069Z,15.98
2018-09-05T06:58:27.009Z,16.37
2018-09-05T07:01:01.410Z,14.73
2018-09-05T07:03:34.187Z,15.13
2018-09-05T07:06:08.237Z,15.23
2018-09-05T07:08:42.639Z,17.05
2018-09-05T07:11:16.770Z,18.82
2018-09-05T07:13:52.339Z,15.85
2018-09-05T07:16:26.786Z,14.23
2018-09-05T07:19:02.333Z,15.70
2018-09-05T07:21:37.874Z,16.20
2018-09-05T07:24:10.746Z,14.80
2018-09-05T07:26:44.874Z,16.32
2018-09-05T07:29:18.505Z,14.28
2018-09-05T07:31:57.111Z,15.23
2018-09-05T07:34:30.755Z,14.63
2018-09-05T07:37:06.757Z,13.32
2018-09-05T07:39:41.458Z,15.03
2018-09-05T07:42:16.462Z,15.28
2018-09-05T07:44:50.127Z,13.80
2018-09-05T07:47:24.811Z,14.83
2018-09-05T07:50:01.089Z,16.30
2018-09-05T07:52:34.993Z,16.20
2018-09-05T07:55:10.065Z,14.60
2018-09-05T07:57:45.338Z,14.75
2018-09-05T08:00:19.467Z,14.60
2018-09-05T08:02:53.208Z,16.42
2018-09-05T08:05:28.341Z,15.03
2018-09-05T08:08:03.538Z,16.07
2018-09-05T08:10:36.709Z,14.75
2018-09-05T08:13:12.154Z,16.12
2018-09-05T08:15:52.156Z,15.72
2018-09-05T08:18:25.386Z,15.40
2018-09-05T08:20:57.655Z,16.45
2018-09-05T08:23:29.536Z,17.17
2018-09-05T08:26:01.151Z,16.00
2018-09-05T08:28:32.828Z,17.42
2018-09-05T08:31:05.108Z,18.07
2018-09-05T08:33:36.928Z,15.85
2018-09-05T08:36:08.488Z,15.25
2018-09-05T08:38:40.004Z,15.98
2018-09-05T08:41:12.027Z,14.70
2018-09-05T08:43:43.721Z,15.58
2018-09-05T08:46:15.728Z,16.17
2018-09-05T08:48:47.402Z,14.70
2018-09-05T08:51:19.860Z,14.68
2018-09-05T08:53:51.975Z,15.93
2018-09-05T08:56:23.481Z,15.48
2018-09-05T08:58:55.425Z,16.25
2018-09-05T09:01:27.102Z,17.17
2018-09-05T09:03:59.168Z,18.45
2018-09-05T09:06:30.542Z,14.60
2018-09-05T09:09:02.650Z,15.55
2018-09-05T09:11:34.146Z,13.32
2018-09-05T09:14:05.898Z,13.40
2018-09-05T09:16:37.412Z,13.95
2018-09-05T09:19:08.994Z,15.80
2018-09-05T09:21:41.510Z,15.28
2018-09-05T09:24:13.552Z,17.15
2018-09-05T09:26:45.190Z,14.78
2018-09-05T09:29:16.714Z,15.18
2018-09-05T09:31:48.058Z,15.28
2018-09-05T09:34:19.987Z,13.90
2018-09-05T09:36:51.293Z,13.85
2018-09-05T09:39:22.947Z,12.98
2018-09-05T09:41:54.512Z,15.38
2018-09-05T09:44:26.176Z,13.50
2018-09-05T09:46:57.620Z,13.35
2018-09-05T09:49:29.155Z,13.05
2018-09-05T09:52:05.138Z,14.50
2018-09-05T09:54:37.240Z,13.10
2018-09-05T09:57:08.697Z,13.30
2018-09-05T09:59:41.773Z,12.70
2018-09-05T10:02:17.706Z,13.68
2018-09-05T10:04:54.212Z,14.18
2018-09-05T10:07:30.233Z,11.20
2018-09-05T10:10:07.290Z,14.40
2018-09-05T10:12:43.301Z,13.70
2018-09-05T10:15:19.664Z,12.25
2018-09-05T10:17:55.701Z,13.18
2018-09-05T10:20:27.909Z,12.73
2018-09-05T10:23:00.111Z,11.60
2018-09-05T10:25:31.716Z,12.90
2018-09-05T10:28:03.734Z,14.58
2018-09-05T10:30:35.307Z,13.55
2018-09-05T10:33:07.097Z,12.45
2018-09-05T10:35:38.864Z,12.80
2018-09-05T10:38:11.181Z,13.08
2018-09-05T10:40:42.922Z,12.70
2018-09-05T10:43:14.539Z,11.45
2018-09-05T10:45:46.373Z,11.48
2018-09-05T10:48:17.664Z,13.30
2018-09-05T10:50:49.486Z,14.45
2018-09-05T10:53:20.693Z,15.32
2018-09-05T10:55:52.596Z,15.55
2018-09-05T10:58:24.119Z,14.58
2018-09-05T11:00:55.849Z,15.25
2018-09-05T11:03:27.597Z,15.13
2018-09-05T11:05:59.234Z,15.30
2018-09-05T11:08:30.777Z,14.18
2018-09-05T11:11:02.584Z,17.37
2018-09-05T11:13:34.005Z,12.97
2018-09-05T11:16:06.225Z,13.38
2018-09-05T11:18:37.674Z,14.70
2018-09-05T11:21:09.536Z,15.70
2018-09-05T11:23:42.195Z,13.83
2018-09-05T11:26:14.191Z,14.70
2018-09-05T11:28:46.022Z,13.95
2018-09-05T11:31:17.438Z,15.97
2018-09-05T11:33:48.718Z,14.20
2018-09-05T11:36:20.418Z,14.27
2018-09-05T11:38:51.757Z,14.67
2018-09-05T11:41:23.730Z,14.45
2018-09-05T11:43:55.380Z,12.33
2018-09-05T11:46:26.955Z,13.62
2018-09-05T11:48:58.954Z,13.78
2018-09-05T11:51:30.576Z,15.43
2018-09-05T11:54:02.026Z,15.37
2018-09-05T11:56:35.523Z,13.17
2018-09-05T11:59:06.966Z,14.10
2018-09-05T12:01:38.641Z,15.30
2018-09-05T12:04:10.146Z,13.60
2018-09-05T12:06:41.993Z,13.83
2018-09-05T12:09:13.906Z,14.80
2018-09-05T12:11:45.669Z,14.03
2018-09-05T12:14:17.221Z,15.03
2018-09-05T12:16:49.620Z,17.20
2018-09-05T12:19:21.107Z,14.77
2018-09-05T12:21:52.537Z,13.90
2018-09-05T12:24:25.401Z,15.10
2018-09-05T12:26:57.140Z,13.83
2018-09-05T12:29:31.095Z,14.50
2018-09-05T12:32:02.722Z,15.27
2018-09-05T12:34:34.133Z,15.70
2018-09-05T12:37:06.025Z,13.53
2018-09-05T12:39:37.281Z,13.00
2018-09-05T12:42:08.980Z,16.07
2018-09-05T12:44:40.614Z,12.80
2018-09-05T12:47:12.322Z,15.27
2018-09-05T12:49:43.758Z,14.40
2018-09-05T12:52:15.593Z,16.87
2018-09-05T12:54:46.920Z,14.77
2018-09-05T12:57:18.946Z,15.27
2018-09-05T12:59:50.411Z,14.60
2018-09-05T13:02:22.207Z,14.77
2018-09-05T13:04:53.518Z,14.13
2018-09-05T13:07:26.028Z,16.10
2018-09-05T13:09:57.290Z,15.30
2018-09-05T13:12:29.216Z,15.00
2018-09-05T13:15:00.441Z,13.80
2018-09-05T13:17:32.596Z,15.53
2018-09-05T13:20:03.875Z,13.80
2018-09-05T13:22:35.588Z,14.33
2018-09-05T13:25:09.346Z,15.50
2018-09-05T13:27:40.725Z,15.23
2018-09-05T13:30:12.229Z,14.47
2018-09-05T13:32:44.643Z,15.10
2018-09-05T13:35:16.122Z,14.07
2018-09-05T13:37:47.755Z,14.30
2018-09-05T13:40:19.221Z,14.30
2018-09-05T13:42:51.173Z,16.07
2018-09-05T13:45:22.450Z,14.67
2018-09-05T13:47:54.175Z,13.40
2018-09-05T13:50:25.661Z,16.70
2018-09-05T13:52:57.345Z,14.90
2018-09-05T13:55:28.665Z,15.77
2018-09-05T13:58:00.166Z,15.00
2018-09-05T14:00:31.546Z,16.03
2018-09-05T14:03:04.194Z,14.00
2018-09-05T14:05:35.613Z,14.83
2018-09-05T14:08:07.470Z,14.40
2018-09-05T14:10:38.741Z,15.40
2018-09-05T14:13:10.584Z,15.60
2018-09-05T14:15:42.270Z,13.87
2018-09-05T14:18:13.785Z,14.50
2018-09-05T14:20:45.402Z,22.20
2018-09-05T14:23:17.133Z,14.53
2018-09-05T14:25:49.525Z,15.10
2018-09-05T14:28:21.221Z,16.00
2018-09-05T14:30:52.780Z,15.70
2018-09-05T14:33:25.467Z,17.17
2018-09-05T14:35:57.046Z,14.97
2018-09-05T14:38:28.693Z,14.80
2018-09-05T14:41:00.297Z,16.70
2018-09-05T14:43:31.998Z,13.20
2018-09-05T14:46:03.865Z,15.80
2018-09-05T14:48:36.073Z,14.97
2018-09-05T14:51:07.763Z,16.80
2018-09-05T14:53:39.676Z,14.60
2018-09-05T14:56:10.957Z,15.47
2018-09-05T14:58:42.865Z,16.13
2018-09-05T15:01:14.408Z,15.00
2018-09-05T15:03:46.036Z,18.33
2018-09-05T15:06:18.045Z,17.53
2018-09-05T15:08:49.787Z,17.33
2018-09-05T15:11:21.305Z,15.50
2018-09-05T15:13:53.121Z,17.20
2018-09-05T15:16:24.504Z,18.03
2018-09-05T15:18:56.202Z,16.60
2018-09-05T15:21:27.674Z,16.43
2018-09-05T15:23:59.296Z,15.70
2018-09-05T15:26:31.476Z,16.50
2018-09-05T15:29:04.046Z,18.70
2018-09-05T15:31:35.405Z,17.20
2018-09-05T15:34:07.566Z,19.47
2018-09-05T15:36:38.966Z,18.00
2018-09-05T15:39:13.060Z,18.53
2018-09-05T15:41:45.175Z,20.30
2018-09-05T15:44:16.753Z,18.30
2018-09-05T15:46:47.975Z,18.77
2018-09-05T15:49:19.290Z,19.30
2018-09-05T15:51:55.239Z,18.47
2018-09-05T15:54:28.018Z,16.80
2018-09-05T15:57:00.200Z,16.83
2018-09-05T15:59:31.726Z,16.10
2018-09-05T16:02:03.690Z,16.63
2018-09-05T16:04:35.357Z,15.27
2018-09-05T16:07:07.413Z,16.43
2018-09-05T16:09:39.154Z,16.63
2018-09-05T16:12:10.643Z,14.60
2018-09-05T16:14:42.374Z,16.53
2018-09-05T16:17:13.745Z,16.83
2018-09-05T16:19:45.297Z,14.27
2018-09-05T16:22:17.362Z,14.23
2018-09-05T16:24:49.058Z,17.70
2018-09-05T16:27:20.567Z,15.90
2018-09-05T16:29:52.117Z,16.50
2018-09-05T16:32:23.693Z,16.73
2018-09-05T16:34:55.578Z,19.13
2018-09-05T16:37:26.794Z,15.73
2018-09-05T16:39:58.470Z,15.03
2018-09-05T16:42:29.865Z,15.70
2018-09-05T16:45:02.278Z,14.30
2018-09-05T16:47:33.722Z,15.43
2018-09-05T16:50:05.809Z,14.90
2018-09-05T16:52:37.229Z,14.27
2018-09-05T16:55:08.902Z,14.93
2018-09-05T16:57:41.569Z,13.87
2018-09-05T17:00:13.452Z,14.57
2018-09-05T17:02:44.744Z,14.93
2018-09-05T17:05:16.685Z,15.83
2018-09-05T17:07:48.145Z,13.50
2018-09-05T17:10:19.592Z,16.40
2018-09-05T17:12:50.921Z,15.37
2018-09-05T17:15:22.682Z,13.63
2018-09-05T17:17:55.898Z,13.93
2018-09-05T17:20:27.533Z,15.53
2018-09-05T17:22:59.602Z,14.07
2018-09-05T17:25:31.427Z,13.83
2018-09-05T17:28:03.014Z,14.40
2018-09-05T17:30:35.654Z,12.47
2018-09-05T17:33:07.005Z,12.53
2018-09-05T17:35:38.567Z,12.80
2018-09-05T17:38:09.684Z,13.10
2018-09-05T17:40:41.282Z,13.33
2018-09-05T17:43:12.951Z,12.40
2018-09-05T17:45:45.255Z,10.33
2018-09-05T17:48:17.283Z,11.43
2018-09-05T17:50:49.691Z,10.60
2018-09-05T17:53:21.318Z,13.33
2018-09-05T17:55:52.739Z,12.77
2018-09-05T17:58:24.674Z,11.27
2018-09-05T18:00:56.818Z,12.60
2018-09-05T18:03:28.849Z,11.37
2018-09-05T18:06:00.881Z,12.10
2018-09-05T18:08:32.278Z,13.27
2018-09-05T18:11:04.127Z,12.63
2018-09-05T18:13:35.542Z,11.13
2018-09-05T18:16:07.402Z,11.30
2018-09-05T18:18:39.282Z,12.07
2018-09-05T18:21:10.862Z,10.37
2018-09-05T18:23:42.219Z,11.33
2018-09-05T18:26:13.957Z,9.70
2018-09-05T18:28:45.217Z,11.53
2018-09-05T18:31:16.756Z,10.93
2018-09-05T18:33:48.469Z,9.77
2018-09-05T18:36:20.177Z,10.43
2018-09-05T18:38:51.482Z,9.90
2018-09-05T18:41:22.978Z,10.10
2018-09-05T18:43:54.149Z,10.90
2018-09-05T18:46:26.145Z,10.20
2018-09-05T18:48:57.480Z,9.67
2018-09-05T18:51:29.120Z,9.70
2018-09-05T18:54:00.645Z,10.03
2018-09-05T18:56:32.380Z,10.77
2018-09-05T18:59:05.455Z,11.00
2018-09-05T19:01:37.122Z,9.83
2018-09-05T19:04:08.401Z,9.60
2018-09-05T19:06:40.081Z,11.17
2018-09-05T19:09:12.978Z,11.27
2018-09-05T19:11:44.634Z,11.57
2018-09-05T19:14:16.166Z,10.50
2018-09-05T19:16:48.413Z,10.13
2018-09-05T19:19:19.704Z,9.30
2018-09-05T19:21:51.298Z,10.70
2018-09-05T19:24:22.913Z,11.67
2018-09-05T19:26:54.558Z,10.70
2018-09-05T19:29:25.911Z,11.47
2018-09-05T19:31:57.753Z,11.70
2018-09-05T19:34:29.097Z,11.30
2018-09-05T19:37:00.854Z,11.93
2018-09-05T19:39:32.377Z,10.30
2018-09-05T19:42:04.541Z,11.27
2018-09-05T19:44:36.166Z,11.37
2018-09-05T19:47:08.714Z,11.20
2018-09-05T19:49:39.910Z,10.87
2018-09-05T19:52:11.614Z,10.60
2018-09-05T19:54:43.084Z,11.50
2018-09-05T19:57:14.734Z,11.77
2018-09-05T19:59:47.749Z,12.27
2018-09-05T20:02:19.260Z,11.00
2018-09-05T20:04:51.165Z,11.50
2018-09-05T20:07:22.814Z,11.90
2018-09-05T20:09:54.342Z,11.20
2018-09-05T20:12:25.914Z,10.90
2018-09-05T20:14:57.286Z,11.20
2018-09-05T20:17:29.173Z,11.43
2018-09-05T20:20:00.490Z,11.40
2018-09-05T20:22:32.113Z,10.47
2018-09-05T20:25:03.504Z,12.43
2018-09-05T20:27:35.142Z,10.80
2018-09-05T20:30:09.455Z,11.53
2018-09-05T20:32:41.031Z,10.70
2018-09-05T20:35:12.889Z,11.13
2018-09-05T20:37:44.714Z,11.10
2018-09-05T20:40:16.249Z,10.50
2018-09-05T20:42:48.073Z,12.23
2018-09-05T20:45:19.417Z,12.33
2018-09-05T20:47:51.144Z,11.47
2018-09-05T20:50:22.426Z,12.33
2018-09-05T20:52:54.072Z,11.13
2018-09-05T20:55:25.718Z,9.07
2018-09-05T20:57:57.714Z,11.50
2018-09-05T21:00:30.105Z,11.60
2018-09-05T21:03:01.986Z,9.87
2018-09-05T21:05:33.257Z,10.60
2018-09-05T21:08:04.882Z,11.53
2018-09-05T21:10:36.397Z,10.43
2018-09-05T21:13:09.718Z,9.47
2018-09-05T21:15:41.136Z,10.83
2018-09-05T21:18:13.142Z,10.10
2018-09-05T21:20:44.750Z,11.27
2018-09-05T21:23:16.300Z,10.20
2018-09-05T21:25:47.778Z,11.27
2018-09-05T21:28:19.498Z,10.67
2018-09-05T21:30:50.857Z,9.73
2018-09-05T21:33:22.710Z,10.13
2018-09-05T21:35:54.217Z,10.50
2018-09-05T21:38:25.934Z,11.10
2018-09-05T21:40:57.299Z,12.23
2018-09-05T21:43:28.933Z,11.63
2018-09-05T21:46:00.820Z,11.37
2018-09-05T21:48:32.678Z,10.60
2018-09-05T21:51:04.100Z,9.60
2018-09-05T21:53:35.825Z,11.43
2018-09-05T21:56:07.655Z,10.13
2018-09-05T21:58:39.386Z,11.03
2018-09-05T22:01:12.141Z,12.57
2018-09-05T22:03:43.805Z,9.30
2018-09-05T22:06:15.271Z,10.10
2018-09-05T22:08:46.986Z,10.70
2018-09-05T22:11:23.462Z,11.00
2018-09-05T22:13:55.700Z,11.03
2018-09-05T22:16:27.128Z,10.20
2018-09-05T22:18:58.894Z,9.87
2018-09-05T22:21:30.220Z,9.93
2018-09-05T22:24:04.757Z,11.23
2018-09-05T22:26:36.145Z,11.20
2018-09-05T22:29:09.537Z,11.10
2018-09-05T22:31:40.654Z,9.87
2018-09-05T22:34:12.069Z,9.47
2018-09-05T22:36:43.390Z,10.30
2018-09-05T22:39:15.147Z,9.70
2018-09-05T22:41:46.577Z,10.87
2018-09-05T22:44:28.246Z,10.63
2018-09-05T22:47:09.473Z,10.47
2018-09-05T22:51:00.996Z,10.70
2018-09-05T22:54:54.063Z,9.97
2018-09-05T22:57:41.695Z,11.07
2018-09-05T23:00:22.090Z,10.03
2018-09-05T23:03:08.615Z,11.30
2018-09-05T23:05:51.514Z,10.83
2018-09-05T23:08:35.618Z,11.27
2018-09-05T23:11:19.817Z,10.50
2018-09-05T23:14:06.916Z,10.67
2018-09-05T23:18:54.786Z,10.00
2018-09-05T23:21:29.101Z,10.87
2018-09-05T23:24:02.413Z,11.90
2018-09-05T23:26:33.958Z,9.80
2018-09-05T23:29:05.248Z,10.30
2018-09-05T23:31:37.077Z,10.90
2018-09-05T23:34:08.367Z,12.23
2018-09-05T23:36:40.306Z,9.77
2018-09-05T23:39:11.742Z,11.10
2018-09-05T23:41:43.259Z,10.50
2018-09-05T23:44:14.729Z,11.07
2018-09-05T23:46:46.666Z,11.80
2018-09-05T23:49:18.306Z,12.10
2018-09-05T23:51:50.063Z,11.50
2018-09-05T23:54:21.535Z,11.83
2018-09-05T23:56:53.750Z,11.23
2018-09-05T23:59:25.311Z,12.10
